sensor_id;sensor_type;location;lat;lon;timestamp;pressure;altitude;pressure_sealevel;temperature;humidity
56038;BME280;41907;47.848;9.000;2023-03-16T00:01:10;96045.44;;;-0.27;100.00
56038;BME280;41907;47.848;9.000;2023-03-16T00:03:35;96050.69;;;-0.27;100.00
56038;BME280;41907;47.848;9.000;2023-03-16T00:06:01;96046.25;;;-0.26;100.00
56038;BME280;41907;47.848;9.000;2023-03-16T00:08:26;96046.94;;;-0.31;100.00
56038;BME280;41907;47.848;9.000;2023-03-16T00:10:52;96046.84;;;-0.36;100.00
56038;BME280;41907;47.848;9.000;2023-03-16T00:13:20;96048.13;;;-0.50;100.00
56038;BME280;41907;47.848;9.000;2023-03-16T00:15:56;96045.72;;;-0.52;100.00
56038;BME280;41907;47.848;9.000;2023-03-16T00:18:24;96043.91;;;-0.51;100.00
56038;BME280;41907;47.848;9.000;2023-03-16T00:20:56;96037.78;;;-0.57;100.00
56038;BME280;41907;47.848;9.000;2023-03-16T00:23:22;96040.94;;;-0.55;100.00
56038;BME280;41907;47.848;9.000;2023-03-16T00:25:58;96037.88;;;-0.52;100.00
56038;BME280;41907;47.848;9.000;2023-03-16T00:28:25;96035.13;;;-0.45;100.00
56038;BME280;41907;47.848;9.000;2023-03-16T00:30:51;96035.56;;;-0.37;100.00
56038;BME280;41907;47.848;9.000;2023-03-16T00:33:16;96043.09;;;-0.28;100.00
56038;BME280;41907;47.848;9.000;2023-03-16T00:35:46;96040.34;;;-0.33;100.00
56038;BME280;41907;47.848;9.000;2023-03-16T00:38:19;96029.28;;;-0.35;100.00
56038;BME280;41907;47.848;9.000;2023-03-16T00:40:45;96033.94;;;-0.26;100.00
56038;BME280;41907;47.848;9.000;2023-03-16T00:43:11;96031.97;;;-0.19;100.00
56038;BME280;41907;47.848;9.000;2023-03-16T00:45:37;96028.47;;;-0.24;100.00
56038;BME280;41907;47.848;9.000;2023-03-16T00:48:02;96014.13;;;-0.33;100.00
56038;BME280;41907;47.848;9.000;2023-03-16T00:50:28;96012.44;;;-0.40;100.00
56038;BME280;41907;47.848;9.000;2023-03-16T00:52:53;96011.63;;;-0.28;100.00
56038;BME280;41907;47.848;9.000;2023-03-16T00:55:19;96015.72;;;-0.21;100.00
56038;BME280;41907;47.848;9.000;2023-03-16T00:57:44;96018.41;;;-0.16;100.00
56038;BME280;41907;47.848;9.000;2023-03-16T01:00:10;96005.09;;;-0.26;100.00
56038;BME280;41907;47.848;9.000;2023-03-16T01:02:39;96000.00;;;-0.32;100.00
56038;BME280;41907;47.848;9.000;2023-03-16T01:05:05;95998.06;;;-0.37;100.00
56038;BME280;41907;47.848;9.000;2023-03-16T01:07:30;96003.91;;;-0.47;100.00
56038;BME280;41907;47.848;9.000;2023-03-16T01:09:55;96010.97;;;-0.47;100.00
56038;BME280;41907;47.848;9.000;2023-03-16T01:12:22;96005.19;;;-0.49;100.00
56038;BME280;41907;47.848;9.000;2023-03-16T01:14:47;96003.34;;;-0.49;100.00
56038;BME280;41907;47.848;9.000;2023-03-16T01:17:14;95997.44;;;-0.56;100.00
56038;BME280;41907;47.848;9.000;2023-03-16T01:19:40;95999.25;;;-0.56;100.00
56038;BME280;41907;47.848;9.000;2023-03-16T01:22:06;95998.47;;;-0.57;100.00
56038;BME280;41907;47.848;9.000;2023-03-16T01:24:33;96003.59;;;-0.50;100.00
56038;BME280;41907;47.848;9.000;2023-03-16T01:26:58;95999.16;;;-0.50;100.00
56038;BME280;41907;47.848;9.000;2023-03-16T01:29:24;95999.94;;;-0.49;100.00
56038;BME280;41907;47.848;9.000;2023-03-16T01:31:49;96001.28;;;-0.47;100.00
56038;BME280;41907;47.848;9.000;2023-03-16T01:34:15;96001.75;;;-0.50;100.00
56038;BME280;41907;47.848;9.000;2023-03-16T01:36:41;95994.69;;;-0.49;100.00
56038;BME280;41907;47.848;9.000;2023-03-16T01:39:09;96000.16;;;-0.51;100.00
56038;BME280;41907;47.848;9.000;2023-03-16T01:41:35;96007.88;;;-0.44;100.00
56038;BME280;41907;47.848;9.000;2023-03-16T01:44:00;96012.09;;;-0.43;100.00
56038;BME280;41907;47.848;9.000;2023-03-16T01:46:27;96005.19;;;-0.49;100.00
56038;BME280;41907;47.848;9.000;2023-03-16T01:51:48;95993.41;;;-0.47;100.00
56038;BME280;41907;47.848;9.000;2023-03-16T01:54:35;95995.38;;;-0.42;100.00
56038;BME280;41907;47.848;9.000;2023-03-16T01:57:03;95990.13;;;-0.42;100.00
56038;BME280;41907;47.848;9.000;2023-03-16T02:02:05;95985.94;;;-0.55;100.00
56038;BME280;41907;47.848;9.000;2023-03-16T02:07:22;95979.25;;;-0.74;100.00
56038;BME280;41907;47.848;9.000;2023-03-16T02:09:50;95973.69;;;-0.78;100.00
56038;BME280;41907;47.848;9.000;2023-03-16T02:12:18;95976.41;;;-0.72;100.00
56038;BME280;41907;47.848;9.000;2023-03-16T02:14:45;95985.75;;;-0.77;100.00
56038;BME280;41907;47.848;9.000;2023-03-16T02:17:12;95975.59;;;-0.85;100.00
56038;BME280;41907;47.848;9.000;2023-03-16T02:20:23;95979.94;;;-0.90;100.00
56038;BME280;41907;47.848;9.000;2023-03-16T02:22:53;95974.94;;;-0.92;100.00
56038;BME280;41907;47.848;9.000;2023-03-16T02:25:22;95972.78;;;-0.95;100.00
56038;BME280;41907;47.848;9.000;2023-03-16T02:28:01;95967.78;;;-0.96;100.00
56038;BME280;41907;47.848;9.000;2023-03-16T02:30:29;95965.72;;;-0.94;100.00
56038;BME280;41907;47.848;9.000;2023-03-16T02:32:55;95968.31;;;-0.94;100.00
56038;BME280;41907;47.848;9.000;2023-03-16T02:35:20;95968.31;;;-0.94;100.00
56038;BME280;41907;47.848;9.000;2023-03-16T02:37:46;95964.69;;;-0.93;100.00
56038;BME280;41907;47.848;9.000;2023-03-16T02:40:19;95960.97;;;-0.97;100.00
56038;BME280;41907;47.848;9.000;2023-03-16T02:43:12;95963.00;;;-0.99;100.00
56038;BME280;41907;47.848;9.000;2023-03-16T02:46:01;95964.38;;;-0.85;100.00
56038;BME280;41907;47.848;9.000;2023-03-16T02:50:59;95961.03;;;-0.92;100.00
56038;BME280;41907;47.848;9.000;2023-03-16T02:53:24;95951.84;;;-0.95;100.00
56038;BME280;41907;47.848;9.000;2023-03-16T02:55:50;95956.75;;;-0.98;100.00
56038;BME280;41907;47.848;9.000;2023-03-16T02:58:15;95960.16;;;-0.98;100.00
56038;BME280;41907;47.848;9.000;2023-03-16T03:00:42;95959.34;;;-0.98;100.00
56038;BME280;41907;47.848;9.000;2023-03-16T03:03:10;95967.66;;;-1.01;100.00
56038;BME280;41907;47.848;9.000;2023-03-16T03:05:36;95967.56;;;-1.06;100.00
56038;BME280;41907;47.848;9.000;2023-03-16T03:08:02;95967.78;;;-1.08;100.00
56038;BME280;41907;47.848;9.000;2023-03-16T03:10:27;95974.25;;;-1.10;100.00
56038;BME280;41907;47.848;9.000;2023-03-16T03:12:53;95964.38;;;-1.20;100.00
56038;BME280;41907;47.848;9.000;2023-03-16T03:15:18;95963.00;;;-1.23;100.00
56038;BME280;41907;47.848;9.000;2023-03-16T03:17:44;95961.53;;;-1.19;100.00
56038;BME280;41907;47.848;9.000;2023-03-16T03:20:11;95957.44;;;-1.15;100.00
56038;BME280;41907;47.848;9.000;2023-03-16T03:22:45;95951.41;;;-1.15;100.00
56038;BME280;41907;47.848;9.000;2023-03-16T03:25:12;95957.44;;;-1.15;100.00
56038;BME280;41907;47.848;9.000;2023-03-16T03:27:39;95951.19;;;-1.14;100.00
56038;BME280;41907;47.848;9.000;2023-03-16T03:30:10;95949.81;;;-1.16;100.00
56038;BME280;41907;47.848;9.000;2023-03-16T03:32:37;95947.88;;;-1.21;100.00
56038;BME280;41907;47.848;9.000;2023-03-16T03:35:03;95958.34;;;-1.21;100.00
56038;BME280;41907;47.848;9.000;2023-03-16T03:37:28;95942.84;;;-1.22;100.00
56038;BME280;41907;47.848;9.000;2023-03-16T03:39:54;95955.41;;;-1.24;100.00
56038;BME280;41907;47.848;9.000;2023-03-16T03:42:19;95960.28;;;-1.28;100.00
56038;BME280;41907;47.848;9.000;2023-03-16T03:44:48;95944.13;;;-1.25;100.00
56038;BME280;41907;47.848;9.000;2023-03-16T03:47:13;95953.31;;;-1.22;100.00
56038;BME280;41907;47.848;9.000;2023-03-16T03:49:39;95945.25;;;-1.21;100.00
56038;BME280;41907;47.848;9.000;2023-03-16T03:52:05;95950.03;;;-1.18;100.00
56038;BME280;41907;47.848;9.000;2023-03-16T03:54:30;95957.75;;;-1.23;100.00
56038;BME280;41907;47.848;9.000;2023-03-16T03:56:56;95955.06;;;-1.16;100.00
56038;BME280;41907;47.848;9.000;2023-03-16T03:59:21;95955.84;;;-1.16;100.00
56038;BME280;41907;47.848;9.000;2023-03-16T04:01:47;95949.13;;;-1.12;100.00
56038;BME280;41907;47.848;9.000;2023-03-16T04:04:13;95953.91;;;-1.08;100.00
56038;BME280;41907;47.848;9.000;2023-03-16T04:06:39;95949.03;;;-1.17;100.00
56038;BME280;41907;47.848;9.000;2023-03-16T04:09:06;95945.81;;;-1.19;100.00
56038;BME280;41907;47.848;9.000;2023-03-16T04:11:32;95939.56;;;-1.18;100.00
56038;BME280;41907;47.848;9.000;2023-03-16T04:13:58;95950.59;;;-1.27;100.00
56038;BME280;41907;47.848;9.000;2023-03-16T04:16:23;95937.88;;;-1.24;100.00
56038;BME280;41907;47.848;9.000;2023-03-16T04:18:53;95942.31;;;-1.24;100.00
56038;BME280;41907;47.848;9.000;2023-03-16T04:21:19;95945.81;;;-1.30;100.00
56038;BME280;41907;47.848;9.000;2023-03-16T04:23:45;95939.22;;;-1.21;100.00
56038;BME280;41907;47.848;9.000;2023-03-16T04:26:11;95933.97;;;-1.21;100.00
56038;BME280;41907;47.848;9.000;2023-03-16T04:28:37;95929.22;;;-1.24;100.00
56038;BME280;41907;47.848;9.000;2023-03-16T04:31:04;95923.53;;;-1.33;100.00
56038;BME280;41907;47.848;9.000;2023-03-16T04:33:32;95932.63;;;-1.35;100.00
56038;BME280;41907;47.848;9.000;2023-03-16T04:35:58;95923.28;;;-1.31;100.00
56038;BME280;41907;47.848;9.000;2023-03-16T04:38:23;95924.34;;;-1.32;100.00
56038;BME280;41907;47.848;9.000;2023-03-16T04:40:49;95923.88;;;-1.29;100.00
56038;BME280;41907;47.848;9.000;2023-03-16T04:43:14;95921.25;;;-1.29;100.00
56038;BME280;41907;47.848;9.000;2023-03-16T04:45:39;95919.78;;;-1.37;100.00
56038;BME280;41907;47.848;9.000;2023-03-16T04:48:05;95908.50;;;-1.37;100.00
56038;BME280;41907;47.848;9.000;2023-03-16T04:50:31;95909.53;;;-1.38;100.00
56038;BME280;41907;47.848;9.000;2023-03-16T04:52:56;95908.75;;;-1.39;100.00
56038;BME280;41907;47.848;9.000;2023-03-16T04:55:21;95904.09;;;-1.37;100.00
56038;BME280;41907;47.848;9.000;2023-03-16T04:57:47;95908.28;;;-1.24;100.00
56038;BME280;41907;47.848;9.000;2023-03-16T05:00:13;95905.09;;;-1.26;100.00
56038;BME280;41907;47.848;9.000;2023-03-16T05:02:49;95908.16;;;-1.29;100.00
56038;BME280;41907;47.848;9.000;2023-03-16T05:05:16;95906.25;;;-1.34;100.00
56038;BME280;41907;47.848;9.000;2023-03-16T05:07:41;95899.19;;;-1.33;100.00
56038;BME280;41907;47.848;9.000;2023-03-16T05:10:09;95907.50;;;-1.25;100.00
56038;BME280;41907;47.848;9.000;2023-03-16T05:12:35;95905.19;;;-1.21;100.00
56038;BME280;41907;47.848;9.000;2023-03-16T05:15:00;95898.72;;;-1.19;100.00
56038;BME280;41907;47.848;9.000;2023-03-16T05:17:26;95892.91;;;-1.21;100.00
56038;BME280;41907;47.848;9.000;2023-03-16T05:19:52;95885.28;;;-1.22;100.00
56038;BME280;41907;47.848;9.000;2023-03-16T05:22:17;95890.19;;;-1.26;100.00
56038;BME280;41907;47.848;9.000;2023-03-16T05:24:42;95894.19;;;-1.23;100.00
56038;BME280;41907;47.848;9.000;2023-03-16T05:27:08;95899.06;;;-1.27;100.00
56038;BME280;41907;47.848;9.000;2023-03-16T05:29:33;95896.81;;;-1.23;100.00
56038;BME280;41907;47.848;9.000;2023-03-16T05:31:59;95894.28;;;-1.18;100.00
56038;BME280;41907;47.848;9.000;2023-03-16T05:34:25;95893.84;;;-1.15;100.00
56038;BME280;41907;47.848;9.000;2023-03-16T05:36:51;95899.97;;;-1.09;100.00
56038;BME280;41907;47.848;9.000;2023-03-16T05:39:16;95891.66;;;-1.06;100.00
56038;BME280;41907;47.848;9.000;2023-03-16T05:41:41;95893.13;;;-1.10;100.00
56038;BME280;41907;47.848;9.000;2023-03-16T05:44:07;95903.03;;;-1.13;100.00
56038;BME280;41907;47.848;9.000;2023-03-16T05:46:33;95896.88;;;-1.06;100.00
56038;BME280;41907;47.848;9.000;2023-03-16T05:48:58;95902.44;;;-1.03;100.00
56038;BME280;41907;47.848;9.000;2023-03-16T05:51:24;95896.09;;;-0.95;100.00
56038;BME280;41907;47.848;9.000;2023-03-16T05:53:53;95892.19;;;-0.93;100.00
56038;BME280;41907;47.848;9.000;2023-03-16T05:56:26;95893.31;;;-0.89;100.00
56038;BME280;41907;47.848;9.000;2023-03-16T05:58:55;95897.41;;;-0.81;100.00
56038;BME280;41907;47.848;9.000;2023-03-16T06:01:21;95898.53;;;-0.77;100.00
56038;BME280;41907;47.848;9.000;2023-03-16T06:03:47;95891.47;;;-0.77;100.00
56038;BME280;41907;47.848;9.000;2023-03-16T06:06:15;95890.47;;;-0.76;100.00
56038;BME280;41907;47.848;9.000;2023-03-16T06:08:41;95884.59;;;-0.66;100.00
56038;BME280;41907;47.848;9.000;2023-03-16T06:11:07;95890.28;;;-0.57;100.00
56038;BME280;41907;47.848;9.000;2023-03-16T06:13:32;95899.81;;;-0.51;100.00
56038;BME280;41907;47.848;9.000;2023-03-16T06:15:57;95894.19;;;-0.43;100.00
56038;BME280;41907;47.848;9.000;2023-03-16T06:18:23;95887.72;;;-0.41;100.00
56038;BME280;41907;47.848;9.000;2023-03-16T06:20:49;95895.97;;;-0.32;100.00
56038;BME280;41907;47.848;9.000;2023-03-16T06:23:15;95894.72;;;-0.29;100.00
56038;BME280;41907;47.848;9.000;2023-03-16T06:25:40;95898.28;;;-0.19;100.00
56038;BME280;41907;47.848;9.000;2023-03-16T06:28:06;95901.59;;;-0.12;100.00
56038;BME280;41907;47.848;9.000;2023-03-16T06:30:32;95904.22;;;0.05;100.00
56038;BME280;41907;47.848;9.000;2023-03-16T06:32:57;95904.16;;;0.17;100.00
56038;BME280;41907;47.848;9.000;2023-03-16T06:35:24;95906.69;;;0.28;100.00
56038;BME280;41907;47.848;9.000;2023-03-16T06:37:49;95899.16;;;0.65;100.00
56038;BME280;41907;47.848;9.000;2023-03-16T06:40:15;95903.56;;;0.82;100.00
56038;BME280;41907;47.848;9.000;2023-03-16T06:42:41;95904.66;;;1.02;100.00
56038;BME280;41907;47.848;9.000;2023-03-16T06:45:07;95908.69;;;1.32;100.00
56038;BME280;41907;47.848;9.000;2023-03-16T06:47:32;95902.38;;;2.08;100.00
56038;BME280;41907;47.848;9.000;2023-03-16T06:49:57;95907.34;;;3.73;96.73
56038;BME280;41907;47.848;9.000;2023-03-16T06:52:23;95909.84;;;5.66;84.75
56038;BME280;41907;47.848;9.000;2023-03-16T06:54:48;95899.88;;;7.51;74.27
56038;BME280;41907;47.848;9.000;2023-03-16T06:57:14;95896.56;;;8.90;65.73
56038;BME280;41907;47.848;9.000;2023-03-16T06:59:39;95906.63;;;10.17;60.10
56038;BME280;41907;47.848;9.000;2023-03-16T07:02:04;95907.25;;;10.00;56.31
56038;BME280;41907;47.848;9.000;2023-03-16T07:04:31;95906.88;;;10.65;54.08
56038;BME280;41907;47.848;9.000;2023-03-16T07:06:56;95903.69;;;11.38;50.84
56038;BME280;41907;47.848;9.000;2023-03-16T07:09:22;95899.72;;;12.41;48.22
56038;BME280;41907;47.848;9.000;2023-03-16T07:11:48;95899.63;;;11.89;47.11
56038;BME280;41907;47.848;9.000;2023-03-16T07:14:13;95908.22;;;11.69;48.09
56038;BME280;41907;47.848;9.000;2023-03-16T07:16:39;95916.84;;;11.35;48.57
56038;BME280;41907;47.848;9.000;2023-03-16T07:19:04;95921.41;;;12.56;46.65
56038;BME280;41907;47.848;9.000;2023-03-16T07:21:30;95918.72;;;13.17;44.42
56038;BME280;41907;47.848;9.000;2023-03-16T07:24:03;95924.22;;;13.67;42.67
56038;BME280;41907;47.848;9.000;2023-03-16T07:26:29;95925.78;;;13.30;42.62
56038;BME280;41907;47.848;9.000;2023-03-16T07:28:54;95929.44;;;13.63;42.53
56038;BME280;41907;47.848;9.000;2023-03-16T07:31:20;95930.19;;;14.31;41.16
56038;BME280;41907;47.848;9.000;2023-03-16T07:33:45;95929.72;;;14.29;40.75
56038;BME280;41907;47.848;9.000;2023-03-16T07:36:10;95937.28;;;14.27;40.89
56038;BME280;41907;47.848;9.000;2023-03-16T07:38:36;95933.59;;;13.82;41.90
56038;BME280;41907;47.848;9.000;2023-03-16T07:41:01;95938.75;;;15.53;38.85
56038;BME280;41907;47.848;9.000;2023-03-16T07:43:27;95930.97;;;15.96;37.41
56038;BME280;41907;47.848;9.000;2023-03-16T07:45:53;95936.22;;;16.42;36.59
56038;BME280;41907;47.848;9.000;2023-03-16T07:48:19;95942.97;;;16.88;35.38
56038;BME280;41907;47.848;9.000;2023-03-16T07:50:48;95924.91;;;16.12;36.58
56038;BME280;41907;47.848;9.000;2023-03-16T07:53:13;95937.88;;;16.34;35.91
56038;BME280;41907;47.848;9.000;2023-03-16T07:55:40;95936.28;;;17.25;35.01
56038;BME280;41907;47.848;9.000;2023-03-16T07:58:07;95941.03;;;17.60;34.37
56038;BME280;41907;47.848;9.000;2023-03-16T08:00:33;95930.91;;;17.41;33.82
56038;BME280;41907;47.848;9.000;2023-03-16T08:02:58;95938.44;;;17.20;34.53
56038;BME280;41907;47.848;9.000;2023-03-16T08:05:24;95942.09;;;17.27;33.73
56038;BME280;41907;47.848;9.000;2023-03-16T08:07:50;95933.34;;;17.46;33.86
56038;BME280;41907;47.848;9.000;2023-03-16T08:10:16;95940.72;;;17.33;33.65
56038;BME280;41907;47.848;9.000;2023-03-16T08:12:42;95939.75;;;18.01;33.12
56038;BME280;41907;47.848;9.000;2023-03-16T08:15:08;95938.44;;;18.10;33.00
56038;BME280;41907;47.848;9.000;2023-03-16T08:17:34;95934.66;;;18.31;32.59
56038;BME280;41907;47.848;9.000;2023-03-16T08:20:01;95928.66;;;18.21;32.07
56038;BME280;41907;47.848;9.000;2023-03-16T08:22:26;95930.88;;;18.86;31.73
56038;BME280;41907;47.848;9.000;2023-03-16T08:24:52;95929.00;;;18.90;30.98
56038;BME280;41907;47.848;9.000;2023-03-16T08:27:17;95926.81;;;19.38;30.23
56038;BME280;41907;47.848;9.000;2023-03-16T08:29:44;95922.66;;;18.12;31.92
56038;BME280;41907;47.848;9.000;2023-03-16T08:32:10;95918.44;;;17.80;32.64
56038;BME280;41907;47.848;9.000;2023-03-16T08:34:36;95918.28;;;17.73;32.87
56038;BME280;41907;47.848;9.000;2023-03-16T08:37:04;95916.56;;;18.50;32.46
56038;BME280;41907;47.848;9.000;2023-03-16T08:39:29;95920.59;;;19.33;31.70
56038;BME280;41907;47.848;9.000;2023-03-16T08:41:55;95923.28;;;19.33;30.76
56038;BME280;41907;47.848;9.000;2023-03-16T08:44:21;95919.47;;;19.57;30.91
56038;BME280;41907;47.848;9.000;2023-03-16T08:46:47;95916.34;;;18.75;31.18
56038;BME280;41907;47.848;9.000;2023-03-16T08:49:13;95909.38;;;17.88;32.35
56038;BME280;41907;47.848;9.000;2023-03-16T08:51:38;95906.16;;;17.67;33.50
56038;BME280;41907;47.848;9.000;2023-03-16T08:54:04;95910.16;;;17.14;34.55
56038;BME280;41907;47.848;9.000;2023-03-16T08:56:29;95902.22;;;17.96;33.56
56038;BME280;41907;47.848;9.000;2023-03-16T08:58:55;95899.34;;;18.74;31.59
56038;BME280;41907;47.848;9.000;2023-03-16T09:01:21;95891.63;;;18.22;32.19
56038;BME280;41907;47.848;9.000;2023-03-16T09:03:48;95881.56;;;18.19;32.17
56038;BME280;41907;47.848;9.000;2023-03-16T09:06:15;95888.03;;;18.34;32.06
56038;BME280;41907;47.848;9.000;2023-03-16T09:08:41;95892.84;;;18.25;31.85
56038;BME280;41907;47.848;9.000;2023-03-16T09:11:14;95889.84;;;16.60;33.44
56038;BME280;41907;47.848;9.000;2023-03-16T09:13:41;95897.53;;;17.02;33.79
56038;BME280;41907;47.848;9.000;2023-03-16T09:16:07;95893.00;;;17.34;32.70
56038;BME280;41907;47.848;9.000;2023-03-16T09:18:34;95890.84;;;18.02;32.01
56038;BME280;41907;47.848;9.000;2023-03-16T09:21:02;95892.41;;;17.88;31.48
56038;BME280;41907;47.848;9.000;2023-03-16T09:23:29;95892.75;;;16.95;34.44
56038;BME280;41907;47.848;9.000;2023-03-16T09:25:58;95887.28;;;18.52;32.07
56038;BME280;41907;47.848;9.000;2023-03-16T09:28:25;95893.59;;;18.95;30.24
56038;BME280;41907;47.848;9.000;2023-03-16T09:30:54;95892.03;;;18.75;31.26
56038;BME280;41907;47.848;9.000;2023-03-16T09:33:21;95882.94;;;18.29;31.80
56038;BME280;41907;47.848;9.000;2023-03-16T09:35:47;95873.47;;;18.19;32.41
56038;BME280;41907;47.848;9.000;2023-03-16T09:38:13;95870.06;;;17.71;32.05
56038;BME280;41907;47.848;9.000;2023-03-16T09:40:39;95879.06;;;17.47;32.94
56038;BME280;41907;47.848;9.000;2023-03-16T09:43:27;95888.13;;;18.37;32.42
56038;BME280;41907;47.848;9.000;2023-03-16T09:48:46;95882.78;;;19.83;29.65
56038;BME280;41907;47.848;9.000;2023-03-16T09:51:26;95877.09;;;21.04;28.74
56038;BME280;41907;47.848;9.000;2023-03-16T09:54:01;95867.53;;;21.98;27.22
56038;BME280;41907;47.848;9.000;2023-03-16T09:56:34;95875.22;;;20.78;28.09
56038;BME280;41907;47.848;9.000;2023-03-16T09:59:09;95872.00;;;20.09;29.80
56038;BME280;41907;47.848;9.000;2023-03-16T10:04:33;95859.69;;;21.93;27.75
56038;BME280;41907;47.848;9.000;2023-03-16T10:09:55;95871.75;;;22.57;26.18
56038;BME280;41907;47.848;9.000;2023-03-16T10:12:25;95872.53;;;22.58;26.35
56038;BME280;41907;47.848;9.000;2023-03-16T10:17:30;95875.59;;;23.40;25.09
56038;BME280;41907;47.848;9.000;2023-03-16T10:20:05;95877.19;;;23.55;23.08
56038;BME280;41907;47.848;9.000;2023-03-16T10:22:37;95869.09;;;22.68;24.20
56038;BME280;41907;47.848;9.000;2023-03-16T10:28:02;95863.50;;;22.33;24.51
56038;BME280;41907;47.848;9.000;2023-03-16T10:30:33;95868.38;;;22.75;24.15
56038;BME280;41907;47.848;9.000;2023-03-16T10:33:28;95870.44;;;23.06;23.25
56038;BME280;41907;47.848;9.000;2023-03-16T10:36:23;95857.63;;;23.17;22.75
56038;BME280;41907;47.848;9.000;2023-03-16T10:38:52;95861.09;;;23.00;23.34
56038;BME280;41907;47.848;9.000;2023-03-16T10:41:22;95859.41;;;22.74;22.47
56038;BME280;41907;47.848;9.000;2023-03-16T10:43:52;95845.34;;;21.89;24.61
56038;BME280;41907;47.848;9.000;2023-03-16T10:46:19;95835.47;;;23.01;23.86
56038;BME280;41907;47.848;9.000;2023-03-16T10:48:56;95834.16;;;22.70;22.30
56038;BME280;41907;47.848;9.000;2023-03-16T10:51:32;95829.63;;;22.16;24.71
56038;BME280;41907;47.848;9.000;2023-03-16T10:54:32;95830.69;;;20.16;24.56
56038;BME280;41907;47.848;9.000;2023-03-16T10:56:58;95828.09;;;19.70;26.29
56038;BME280;41907;47.848;9.000;2023-03-16T10:59:33;95830.06;;;21.70;24.15
56038;BME280;41907;47.848;9.000;2023-03-16T11:02:02;95820.88;;;21.38;23.47
56038;BME280;41907;47.848;9.000;2023-03-16T11:04:32;95835.19;;;19.32;24.28
56038;BME280;41907;47.848;9.000;2023-03-16T11:06:58;95820.34;;;19.23;25.65
56038;BME280;41907;47.848;9.000;2023-03-16T11:09:33;95815.38;;;20.57;24.86
56038;BME280;41907;47.848;9.000;2023-03-16T11:12:11;95812.63;;;20.90;23.29
56038;BME280;41907;47.848;9.000;2023-03-16T11:14:42;95809.75;;;18.72;24.44
56038;BME280;41907;47.848;9.000;2023-03-16T11:17:23;95806.72;;;19.65;24.79
56038;BME280;41907;47.848;9.000;2023-03-16T11:19:54;95802.88;;;18.75;26.09
56038;BME280;41907;47.848;9.000;2023-03-16T11:22:24;95800.00;;;18.10;26.84
56038;BME280;41907;47.848;9.000;2023-03-16T11:24:54;95798.38;;;16.36;28.60
56038;BME280;41907;47.848;9.000;2023-03-16T11:27:22;95799.75;;;15.78;30.02
56038;BME280;41907;47.848;9.000;2023-03-16T11:32:21;95801.94;;;15.03;31.42
56038;BME280;41907;47.848;9.000;2023-03-16T11:34:48;95799.31;;;15.27;32.65
56038;BME280;41907;47.848;9.000;2023-03-16T11:41:08;95799.19;;;15.36;32.00
56038;BME280;41907;47.848;9.000;2023-03-16T11:56:51;95752.84;;;12.74;37.24
56038;BME280;41907;47.848;9.000;2023-03-16T11:59:34;95767.06;;;12.40;38.01
56038;BME280;41907;47.848;9.000;2023-03-16T12:04:42;95771.53;;;13.29;35.79
56038;BME280;41907;47.848;9.000;2023-03-16T12:17:47;95769.13;;;12.34;37.11
56038;BME280;41907;47.848;9.000;2023-03-16T12:20:19;95770.88;;;12.04;35.51
56038;BME280;41907;47.848;9.000;2023-03-16T12:23:07;95768.22;;;11.87;36.61
56038;BME280;41907;47.848;9.000;2023-03-16T12:25:36;95757.53;;;11.78;35.81
56038;BME280;41907;47.848;9.000;2023-03-16T12:28:08;95756.56;;;12.26;35.80
56038;BME280;41907;47.848;9.000;2023-03-16T12:33:52;95752.94;;;12.13;36.65
56038;BME280;41907;47.848;9.000;2023-03-16T12:39:13;95751.69;;;11.59;35.62
56038;BME280;41907;47.848;9.000;2023-03-16T12:44:48;95737.66;;;11.71;37.01
56038;BME280;41907;47.848;9.000;2023-03-16T12:47:41;95742.59;;;12.03;36.37
56038;BME280;41907;47.848;9.000;2023-03-16T12:50:11;95745.28;;;11.86;35.99
56038;BME280;41907;47.848;9.000;2023-03-16T12:52:44;95737.84;;;12.00;36.58
56038;BME280;41907;47.848;9.000;2023-03-16T12:55:19;95738.97;;;11.82;36.18
56038;BME280;41907;47.848;9.000;2023-03-16T12:57:47;95727.75;;;12.32;36.80
56038;BME280;41907;47.848;9.000;2023-03-16T13:00:14;95728.06;;;12.85;33.78
56038;BME280;41907;47.848;9.000;2023-03-16T13:02:48;95724.16;;;12.74;31.91
56038;BME280;41907;47.848;9.000;2023-03-16T13:05:29;95721.78;;;13.19;31.84
56038;BME280;41907;47.848;9.000;2023-03-16T13:08:09;95731.66;;;13.27;32.96
56038;BME280;41907;47.848;9.000;2023-03-16T13:10:36;95723.34;;;13.12;32.12
56038;BME280;41907;47.848;9.000;2023-03-16T13:13:15;95718.53;;;13.34;31.77
56038;BME280;41907;47.848;9.000;2023-03-16T13:15:43;95722.03;;;13.56;28.07
56038;BME280;41907;47.848;9.000;2023-03-16T13:23:22;95716.38;;;14.11;28.24
56038;BME280;41907;47.848;9.000;2023-03-16T13:26:14;95710.84;;;13.95;29.35
56038;BME280;41907;47.848;9.000;2023-03-16T13:28:41;95712.22;;;13.81;29.09
56038;BME280;41907;47.848;9.000;2023-03-16T13:33:52;95718.56;;;13.55;28.21
56038;BME280;41907;47.848;9.000;2023-03-16T13:36:19;95719.84;;;13.91;28.59
56038;BME280;41907;47.848;9.000;2023-03-16T13:38:56;95720.06;;;13.65;28.62
56038;BME280;41907;47.848;9.000;2023-03-16T13:41:27;95715.91;;;13.26;28.36
56038;BME280;41907;47.848;9.000;2023-03-16T13:43:53;95716.91;;;12.83;28.47
56038;BME280;41907;47.848;9.000;2023-03-16T13:46:21;95705.03;;;12.93;29.55
56038;BME280;41907;47.848;9.000;2023-03-16T13:48:51;95708.00;;;13.00;29.13
56038;BME280;41907;47.848;9.000;2023-03-16T13:51:18;95706.44;;;12.99;30.57
56038;BME280;41907;47.848;9.000;2023-03-16T13:53:45;95705.41;;;12.83;31.77
56038;BME280;41907;47.848;9.000;2023-03-16T13:56:17;95705.91;;;13.05;30.15
56038;BME280;41907;47.848;9.000;2023-03-16T13:58:50;95690.16;;;12.75;30.68
56038;BME280;41907;47.848;9.000;2023-03-16T14:01:27;95695.88;;;12.94;32.19
56038;BME280;41907;47.848;9.000;2023-03-16T14:03:57;95688.56;;;12.44;30.95
56038;BME280;41907;47.848;9.000;2023-03-16T14:06:26;95684.41;;;12.55;30.67
56038;BME280;41907;47.848;9.000;2023-03-16T14:08:56;95685.69;;;12.49;31.32
56038;BME280;41907;47.848;9.000;2023-03-16T14:11:24;95676.16;;;12.31;31.12
56038;BME280;41907;47.848;9.000;2023-03-16T14:13:51;95663.38;;;12.37;30.60
56038;BME280;41907;47.848;9.000;2023-03-16T14:16:22;95670.88;;;12.60;30.96